Airfield :
LOGIN :

Register | Disclaimer

   EN    FR    IT 

 










Legend :    VFR   Marginal VFR   IFR   Intensive IFR   Very Intensive IFR
Visi :
Ceiling :
>= 8 km
>= 3000ft
5 to 8 km
1000 to 3000 ft
1500m to 5 km
500 to 1000 ft
800 to 1500m
200 to 500 ft
< 800m
< 200 ft
Symbols :   Thunderstorms  Fog  Heavy snow  Heavy precipitations  Wind > 20 kt
SIGMETs :     Misc.  Thunderstorms  Icing  Turbulence  Mountain Waves  Volcanic Ashes






- Airport Elevation : 194 ft


EBCV - Chièvres

CURRENT METAR :
  • 171925Z AUTO 17008KT 9999 BKN070/// 13/12 Q1009 BLU

EXPIRED METARs :
  • 171855Z AUTO 18006KT 9999 NCD 12/11 Q1009 BLU
  • 171825Z AUTO 18007KT 9999 FEW016/// 12/11 Q1009 BLU
  • 171807Z AUTO 18006KT 9999 SCT016/// 12/11 Q1009 WHT
  • 171755Z AUTO 17004KT 9999 NCD 11/10 Q1009 BLU
  • 171725Z AUTO 17004KT 9999 NCD 11/10 Q1009 BLU
  • 171655Z AUTO 18004KT 9999 NCD 12/10 Q1009 BLU

TAF TAF EBCV
Valid from the 17 at 19:00 until the 18 at 07:00 UTC


171541Z 1719/1807 19008KT 9999 FEW080
TEMPO 1720/1807 19012G22KT 4000 -SHRA SCT012 BKN020
PROB30
TEMPO 1804/1807 20015G25KT 2500 SHRA SCT007 BKN010TCU



MET'MAP, your aeronautical weather chart ! - Copyright ORBIFLY December 2007 - Disclaimer

ORBIFLY MET'MAP TEAM :

Programming & Development : Alexandra Zaïnal
Concept & Development : Baudouin d'Aumeries
Co-Development & Prog : Marc-Olivier Méhu
Technical & hardware support : Manuel Goepfert

Contact : metmap@orbifly.com




SOURCES & CREDITS :

   NOAA